Aviation Digital Data Service (ADDS)

Output produced by METARs form (0151 UTC 16 January 2019)
found at http://www.aviationweather.gov/metar/data/
 
MRLB 152300Z 1600/1624 09020G35KT 9999 FEW045 TX33/1620Z TN22/1612Z
       
MROC 152300Z 1600/1624 09018KT CAVOK TX29/1618Z TN18/1611Z 
     TEMPO 1600/1618 10020G30KT
       
MRLM 152300Z 1600/1624 25004KT 9999 FEW030 TX29/1617Z TN19/1611Z 
     TEMPO 1606/1613 DZ 
     BECMG 1614/1617 06005KT
       
MRPV 152300Z 1600/1624 09019KT 9999 FEW040 TX26/1619Z TN17/1611Z 
     TEMPO 1603/1618 08018G30KT